createdAt,value
2019-03-17T00:00:16.919Z,5.93
2019-03-17T00:02:45.750Z,6.37
2019-03-17T00:05:14.451Z,6.43
2019-03-17T00:07:43.121Z,5.93
2019-03-17T00:10:11.920Z,6.73
2019-03-17T00:12:40.580Z,7.13
2019-03-17T00:15:09.951Z,6.97
2019-03-17T00:17:41.610Z,7.73
2019-03-17T00:20:09.409Z,7.47
2019-03-17T00:22:38.067Z,6.50
2019-03-17T00:25:09.711Z,6.67
2019-03-17T00:27:37.260Z,6.60
2019-03-17T00:30:11.626Z,7.10
2019-03-17T00:32:40.286Z,6.57
2019-03-17T00:35:09.047Z,7.40
2019-03-17T00:37:37.735Z,6.90
2019-03-17T00:40:08.852Z,7.17
2019-03-17T00:42:37.509Z,7.53
2019-03-17T00:45:11.370Z,7.60
2019-03-17T00:47:39.567Z,7.83
2019-03-17T00:50:12.053Z,6.53
2019-03-17T00:52:40.700Z,7.07
2019-03-17T00:55:09.383Z,7.90
2019-03-17T00:57:38.039Z,8.27
2019-03-17T01:00:12.569Z,8.80
2019-03-17T01:02:41.243Z,7.30
2019-03-17T01:05:09.919Z,5.97
2019-03-17T01:07:38.689Z,5.53
2019-03-17T01:10:09.249Z,5.60
2019-03-17T01:12:37.913Z,6.57
2019-03-17T01:15:07.894Z,5.83
2019-03-17T01:17:36.556Z,5.80
2019-03-17T01:20:07.585Z,5.87
2019-03-17T01:22:36.285Z,6.40
2019-03-17T01:25:07.504Z,6.53
2019-03-17T01:27:36.207Z,6.37
2019-03-17T01:30:07.810Z,4.60
2019-03-17T01:32:36.491Z,6.43
2019-03-17T01:35:09.726Z,5.63
2019-03-17T01:37:39.384Z,6.53
2019-03-17T01:40:11.200Z,6.20
2019-03-17T01:42:39.853Z,6.30
2019-03-17T01:45:10.215Z,5.50
2019-03-17T01:47:38.892Z,5.97
2019-03-17T01:50:10.074Z,5.37
2019-03-17T01:52:38.735Z,5.40
2019-03-17T01:55:08.097Z,5.57
2019-03-17T01:57:36.790Z,5.10
2019-03-17T02:00:10.973Z,5.33
2019-03-17T02:02:39.708Z,5.37
2019-03-17T02:05:20.994Z,5.20
2019-03-17T02:07:39.450Z,5.13
2019-03-17T02:10:09.409Z,4.73
2019-03-17T02:12:38.069Z,5.13
2019-03-17T02:15:08.338Z,7.37
2019-03-17T02:17:37.030Z,7.77
2019-03-17T02:20:08.492Z,8.93
2019-03-17T02:22:37.161Z,7.60
2019-03-17T02:25:06.730Z,7.53
2019-03-17T02:27:35.391Z,7.07
2019-03-17T02:30:05.067Z,7.10
2019-03-17T02:32:33.734Z,6.60
2019-03-17T02:35:02.399Z,5.90
2019-03-17T02:37:31.057Z,5.80
2019-03-17T02:39:59.736Z,5.27
2019-03-17T02:42:28.667Z,5.53
2019-03-17T02:44:57.341Z,5.57
2019-03-17T02:47:26.007Z,4.67
2019-03-17T02:49:54.667Z,4.07
2019-03-17T02:52:23.355Z,4.70
2019-03-17T02:54:52.021Z,3.83
2019-03-17T02:57:20.692Z,4.30
2019-03-17T02:59:49.374Z,5.60
2019-03-17T03:02:20.996Z,5.10
2019-03-17T03:04:49.933Z,5.50
2019-03-17T03:07:18.617Z,5.90
2019-03-17T03:09:47.295Z,6.23
2019-03-17T03:12:16.222Z,5.87
2019-03-17T03:14:44.912Z,5.30
2019-03-17T03:17:13.600Z,5.70
2019-03-17T03:19:42.328Z,5.67
2019-03-17T03:22:11.284Z,5.23
2019-03-17T03:24:40.172Z,5.40
2019-03-17T03:27:08.963Z,5.97
2019-03-17T03:29:37.833Z,6.33
2019-03-17T03:32:06.494Z,7.23
2019-03-17T03:34:35.401Z,7.43
2019-03-17T03:37:04.059Z,7.63
2019-03-17T03:39:32.754Z,7.00
2019-03-17T03:42:01.409Z,8.03
2019-03-17T03:44:30.090Z,9.00
2019-03-17T03:46:58.764Z,8.60
2019-03-17T03:49:27.496Z,7.27
2019-03-17T03:51:56.170Z,6.57
2019-03-17T03:54:24.851Z,6.17
2019-03-17T03:56:53.528Z,6.77
2019-03-17T03:59:22.193Z,6.47
2019-03-17T04:01:50.858Z,7.00
2019-03-17T04:04:19.677Z,7.60
2019-03-17T04:06:48.333Z,6.17
2019-03-17T04:09:17.188Z,7.33
2019-03-17T04:11:45.859Z,7.57
2019-03-17T04:14:14.567Z,7.43
2019-03-17T04:16:43.258Z,6.53
2019-03-17T04:19:11.909Z,6.47
2019-03-17T04:21:40.605Z,6.57
2019-03-17T04:24:09.331Z,6.57
2019-03-17T04:26:38.024Z,7.23
2019-03-17T04:29:06.690Z,5.60
2019-03-17T04:31:35.363Z,4.90
2019-03-17T04:34:04.019Z,4.70
2019-03-17T04:36:40.267Z,5.17
2019-03-17T04:39:03.107Z,3.90
2019-03-17T04:41:32.107Z,4.00
2019-03-17T04:44:00.791Z,4.17
2019-03-17T04:46:29.426Z,3.80
2019-03-17T04:48:58.238Z,4.63
2019-03-17T04:51:27.028Z,3.97
2019-03-17T04:53:55.689Z,3.70
2019-03-17T04:56:24.354Z,3.90
2019-03-17T04:58:53.025Z,4.00
2019-03-17T05:01:21.909Z,3.73
2019-03-17T05:03:50.576Z,3.87
2019-03-17T05:06:19.329Z,3.77
2019-03-17T05:08:47.992Z,4.03
2019-03-17T05:11:16.651Z,4.23
2019-03-17T05:13:45.359Z,4.53
2019-03-17T05:16:14.026Z,4.83
2019-03-17T05:18:42.699Z,5.20
2019-03-17T05:21:11.403Z,5.33
2019-03-17T05:23:40.084Z,4.93
2019-03-17T05:26:08.753Z,4.43
2019-03-17T05:28:37.439Z,4.40
2019-03-17T05:31:06.115Z,4.27
2019-03-17T05:33:34.772Z,4.57
2019-03-17T05:36:03.464Z,4.87
2019-03-17T05:38:32.147Z,3.70
2019-03-17T05:41:01.114Z,4.10
2019-03-17T05:43:29.773Z,3.70
2019-03-17T05:45:58.441Z,3.97
2019-03-17T05:48:27.107Z,4.07
2019-03-17T05:50:56.035Z,3.93
2019-03-17T05:53:24.867Z,4.17
2019-03-17T05:55:53.532Z,3.97
2019-03-17T05:58:22.201Z,3.60
2019-03-17T06:00:51.027Z,4.03
2019-03-17T06:03:19.684Z,4.13
2019-03-17T06:05:48.349Z,4.37
2019-03-17T06:08:17.015Z,4.07
2019-03-17T06:10:47.046Z,3.80
2019-03-17T06:13:15.817Z,3.73
2019-03-17T06:15:44.898Z,3.83
2019-03-17T06:18:13.565Z,3.83
2019-03-17T06:20:42.236Z,3.43
2019-03-17T06:23:10.902Z,3.33
2019-03-17T06:25:39.571Z,3.70
2019-03-17T06:28:08.348Z,2.93
2019-03-17T06:30:37.056Z,3.03
2019-03-17T06:33:05.668Z,3.73
2019-03-17T06:35:34.335Z,2.70
2019-03-17T06:38:03.005Z,2.87
2019-03-17T06:40:31.672Z,3.53
2019-03-17T06:43:00.344Z,4.20
2019-03-17T06:45:29.030Z,4.10
2019-03-17T06:47:57.737Z,5.13
2019-03-17T06:50:26.369Z,8.57
2019-03-17T06:52:55.054Z,8.43
2019-03-17T06:55:23.755Z,9.80
2019-03-17T06:57:52.435Z,9.50
2019-03-17T07:00:21.139Z,8.27
2019-03-17T07:02:49.932Z,8.80
2019-03-17T07:05:18.572Z,7.97
2019-03-17T07:07:47.232Z,8.67
2019-03-17T07:10:15.919Z,8.23
2019-03-17T07:12:44.616Z,10.40
2019-03-17T07:15:13.928Z,8.67
2019-03-17T07:17:43.202Z,8.77
2019-03-17T07:20:13.296Z,7.90
2019-03-17T07:22:41.969Z,7.90
2019-03-17T07:25:10.631Z,9.07
2019-03-17T07:27:39.303Z,8.57
2019-03-17T07:30:13.161Z,8.53
2019-03-17T07:32:41.826Z,8.10
2019-03-17T07:35:10.508Z,7.72
2019-03-17T07:37:39.191Z,7.25
2019-03-17T07:40:12.663Z,9.15
2019-03-17T07:42:41.341Z,8.03
2019-03-17T07:45:11.526Z,7.83
2019-03-17T07:47:40.201Z,8.03
2019-03-17T07:50:13.469Z,8.15
2019-03-17T07:52:42.328Z,8.50
2019-03-17T07:55:11.384Z,8.08
2019-03-17T07:57:40.052Z,8.35
2019-03-17T08:00:11.391Z,7.65
2019-03-17T08:02:40.065Z,7.47
2019-03-17T08:05:10.175Z,6.40
2019-03-17T08:07:38.846Z,5.92
2019-03-17T08:10:10.444Z,5.25
2019-03-17T08:12:39.198Z,5.20
2019-03-17T08:15:10.555Z,5.05
2019-03-17T08:17:39.241Z,5.75
2019-03-17T08:20:10.243Z,5.40
2019-03-17T08:22:38.926Z,6.12
2019-03-17T08:25:09.659Z,5.90
2019-03-17T08:27:38.432Z,6.60
2019-03-17T08:30:10.047Z,6.45
2019-03-17T08:32:41.132Z,6.42
2019-03-17T08:35:10.340Z,6.10
2019-03-17T08:37:39.021Z,6.42
2019-03-17T08:40:13.821Z,6.45
2019-03-17T08:42:42.504Z,6.22
2019-03-17T08:45:13.169Z,6.67
2019-03-17T08:47:41.839Z,6.87
2019-03-17T08:50:14.580Z,6.72
2019-03-17T08:52:43.363Z,6.70
2019-03-17T08:55:12.674Z,6.17
2019-03-17T08:57:41.392Z,6.58
2019-03-17T09:00:15.349Z,6.33
2019-03-17T09:02:44.030Z,6.65
2019-03-17T09:05:12.859Z,6.17
2019-03-17T09:07:41.715Z,6.10
2019-03-17T09:10:15.481Z,5.50
2019-03-17T09:12:44.150Z,5.45
2019-03-17T09:15:12.826Z,6.08
2019-03-17T09:17:41.526Z,5.08
2019-03-17T09:20:12.664Z,4.80
2019-03-17T09:22:41.498Z,5.08
2019-03-17T09:25:11.669Z,5.35
2019-03-17T09:27:40.356Z,5.50
2019-03-17T09:30:12.257Z,5.67
2019-03-17T09:32:40.934Z,5.12
2019-03-17T09:35:10.573Z,5.45
2019-03-17T09:37:39.192Z,5.75
2019-03-17T09:40:15.450Z,5.30
2019-03-17T09:42:44.151Z,5.65
2019-03-17T09:45:13.988Z,5.03
2019-03-17T09:47:43.070Z,5.20
2019-03-17T09:50:16.041Z,5.00
2019-03-17T09:52:44.706Z,4.83
2019-03-17T09:55:15.842Z,4.97
2019-03-17T09:57:44.639Z,4.75
2019-03-17T10:00:14.851Z,4.72
2019-03-17T10:02:43.641Z,5.40
2019-03-17T10:05:12.822Z,5.25
2019-03-17T10:07:41.488Z,4.58
2019-03-17T10:10:15.059Z,4.80
2019-03-17T10:12:43.735Z,4.33
2019-03-17T10:15:14.942Z,4.83
2019-03-17T10:17:43.616Z,4.45
2019-03-17T10:20:17.235Z,4.80
2019-03-17T10:22:45.949Z,4.75
2019-03-17T10:25:15.119Z,3.75
2019-03-17T10:27:43.782Z,4.40
2019-03-17T10:30:20.271Z,3.72
2019-03-17T10:32:48.985Z,4.17
2019-03-17T10:35:17.609Z,4.45
2019-03-17T10:37:46.286Z,4.28
2019-03-17T10:40:15.957Z,3.72
2019-03-17T10:42:44.960Z,4.33
2019-03-17T10:45:14.815Z,3.90
2019-03-17T10:47:43.489Z,3.30
2019-03-17T10:50:17.542Z,3.55
2019-03-17T10:52:46.257Z,3.92
2019-03-17T10:55:14.963Z,3.27
2019-03-17T10:57:43.631Z,2.60
2019-03-17T11:00:17.437Z,2.20
2019-03-17T11:02:46.142Z,1.87
2019-03-17T11:05:14.813Z,1.77
2019-03-17T11:07:43.481Z,3.20
2019-03-17T11:10:16.113Z,3.25
2019-03-17T11:12:44.784Z,2.90
2019-03-17T11:15:15.653Z,2.20
2019-03-17T11:17:44.332Z,1.80
2019-03-17T11:20:13.918Z,2.17
2019-03-17T11:22:42.573Z,1.95
2019-03-17T11:25:13.588Z,1.70
2019-03-17T11:27:42.270Z,1.90
2019-03-17T11:30:18.498Z,1.95
2019-03-17T11:32:47.277Z,2.08
2019-03-17T11:35:15.954Z,2.80
2019-03-17T11:37:44.622Z,2.10
2019-03-17T11:40:15.909Z,1.95
2019-03-17T11:42:44.588Z,1.90
2019-03-17T11:45:14.758Z,1.60
2019-03-17T11:47:43.620Z,2.40
2019-03-17T11:50:20.297Z,2.30
2019-03-17T11:52:49.493Z,2.40
2019-03-17T11:55:19.743Z,1.87
2019-03-17T11:57:48.415Z,2.50
2019-03-17T12:00:24.264Z,2.58
2019-03-17T12:02:52.931Z,2.15
2019-03-17T12:05:21.592Z,2.15
2019-03-17T12:07:50.266Z,1.77
2019-03-17T12:10:21.207Z,2.58
2019-03-17T12:12:49.924Z,1.87
2019-03-17T12:15:23.764Z,2.00
2019-03-17T12:17:52.444Z,2.00
2019-03-17T12:20:21.117Z,1.75
2019-03-17T12:22:49.968Z,2.08
2019-03-17T12:25:19.552Z,2.02
2019-03-17T12:27:48.211Z,1.70
2019-03-17T12:30:23.991Z,1.60
2019-03-17T12:32:53.874Z,2.05
2019-03-17T12:35:22.738Z,2.58
2019-03-17T12:37:51.503Z,1.95
2019-03-17T12:40:20.276Z,2.17
2019-03-17T12:42:48.979Z,2.05
2019-03-17T12:45:17.955Z,1.90
2019-03-17T12:47:46.860Z,1.42
2019-03-17T12:50:17.184Z,1.52
2019-03-17T12:52:45.901Z,2.05
2019-03-17T12:55:14.575Z,1.82
2019-03-17T12:57:43.283Z,1.80
2019-03-17T13:00:14.770Z,2.00
2019-03-17T13:02:44.386Z,2.02
2019-03-17T13:05:13.876Z,1.92
2019-03-17T13:07:42.534Z,1.80
2019-03-17T13:10:15.986Z,1.80
2019-03-17T13:12:44.188Z,2.10
2019-03-17T13:15:13.512Z,2.15
2019-03-17T13:17:42.177Z,2.47
2019-03-17T13:20:16.108Z,2.20
2019-03-17T13:22:44.786Z,1.67
2019-03-17T13:25:14.145Z,1.52
2019-03-17T13:27:42.816Z,1.70
2019-03-17T13:30:16.084Z,1.55
2019-03-17T13:32:44.852Z,1.70
2019-03-17T13:35:13.824Z,1.92
2019-03-17T13:37:42.680Z,1.70
2019-03-17T13:40:28.162Z,2.30
2019-03-17T13:42:46.599Z,2.00
2019-03-17T13:45:15.560Z,2.05
2019-03-17T13:47:44.225Z,2.37
2019-03-17T13:50:17.854Z,1.62
2019-03-17T13:52:46.517Z,1.47
2019-03-17T13:55:15.200Z,2.00
2019-03-17T13:57:58.430Z,1.85
2019-03-17T14:00:27.099Z,1.57
2019-03-17T14:02:55.766Z,2.58
2019-03-17T14:05:24.443Z,1.42
2019-03-17T14:07:53.101Z,1.52
2019-03-17T14:10:21.771Z,1.70
2019-03-17T14:12:50.436Z,2.02
2019-03-17T14:15:19.134Z,1.70
2019-03-17T14:17:47.814Z,1.67
2019-03-17T14:20:23.651Z,1.47
2019-03-17T14:22:52.348Z,1.80
2019-03-17T14:25:26.934Z,1.95
2019-03-17T14:27:55.635Z,2.75
2019-03-17T14:30:24.309Z,1.80
2019-03-17T14:32:52.971Z,1.75
2019-03-17T14:35:22.073Z,1.70
2019-03-17T14:37:50.885Z,1.87
2019-03-17T14:40:19.575Z,1.77
2019-03-17T14:42:51.650Z,1.67
2019-03-17T14:45:20.516Z,1.77
2019-03-17T14:47:49.182Z,2.25
2019-03-17T14:50:20.752Z,1.70
2019-03-17T14:52:49.437Z,1.90
2019-03-17T14:55:18.263Z,2.10
2019-03-17T14:57:46.930Z,1.77
2019-03-17T15:00:20.345Z,1.70
2019-03-17T15:02:49.238Z,2.00
2019-03-17T15:05:18.207Z,2.15
2019-03-17T15:07:47.156Z,2.25
2019-03-17T15:10:26.308Z,2.08
2019-03-17T15:12:55.053Z,2.92
2019-03-17T15:15:24.226Z,3.02
2019-03-17T15:17:52.891Z,2.55
2019-03-17T15:20:28.113Z,3.98
2019-03-17T15:22:57.079Z,3.20
2019-03-17T15:25:26.150Z,3.60
2019-03-17T15:27:54.821Z,2.37
2019-03-17T15:30:27.547Z,2.40
2019-03-17T15:32:56.355Z,2.80
2019-03-17T15:35:25.028Z,2.50
2019-03-17T15:37:53.698Z,2.57
2019-03-17T15:40:23.317Z,1.83
2019-03-17T15:42:52.796Z,2.33
2019-03-17T15:45:25.832Z,2.47
2019-03-17T15:47:54.506Z,2.37
2019-03-17T15:50:27.502Z,2.47
2019-03-17T15:52:56.264Z,2.53
2019-03-17T15:55:24.945Z,2.80
2019-03-17T15:57:53.624Z,2.70
2019-03-17T16:00:26.307Z,2.60
2019-03-17T16:02:53.815Z,2.83
2019-03-17T16:05:22.915Z,3.30
2019-03-17T16:07:51.635Z,3.13
2019-03-17T16:10:33.110Z,4.00
2019-03-17T16:13:01.783Z,4.53
2019-03-17T16:15:30.470Z,4.80
2019-03-17T16:17:59.124Z,4.40
2019-03-17T16:20:28.205Z,5.07
2019-03-17T16:22:56.893Z,5.97
2019-03-17T16:25:27.592Z,5.47
2019-03-17T16:27:56.357Z,5.30
2019-03-17T16:30:26.461Z,5.67
2019-03-17T16:32:55.235Z,5.77
2019-03-17T16:35:23.913Z,5.50
2019-03-17T16:37:52.617Z,6.93
2019-03-17T16:40:31.935Z,5.40
2019-03-17T16:43:00.605Z,3.93
2019-03-17T16:45:29.268Z,4.07
2019-03-17T16:47:57.943Z,3.00
2019-03-17T16:50:26.607Z,3.20
2019-03-17T16:52:55.272Z,3.13
2019-03-17T16:55:24.013Z,2.97
2019-03-17T16:57:52.729Z,2.70
2019-03-17T17:00:22.409Z,3.40
2019-03-17T17:02:51.656Z,3.60
2019-03-17T17:05:21.454Z,3.40
2019-03-17T17:07:50.118Z,3.10
2019-03-17T17:10:23.601Z,3.70
2019-03-17T17:12:52.339Z,3.50
2019-03-17T17:15:26.011Z,3.67
2019-03-17T17:17:54.688Z,3.93
2019-03-17T17:20:31.880Z,3.67
2019-03-17T17:23:00.551Z,3.87
2019-03-17T17:25:29.221Z,4.00
2019-03-17T17:27:57.918Z,3.43
2019-03-17T17:30:26.678Z,3.40
2019-03-17T17:32:55.340Z,3.40
2019-03-17T17:35:24.018Z,3.07
2019-03-17T17:37:52.680Z,3.47
2019-03-17T17:40:22.532Z,3.97
2019-03-17T17:42:51.294Z,3.73
2019-03-17T17:45:22.143Z,4.93
2019-03-17T17:47:50.798Z,4.73
2019-03-17T17:50:20.661Z,4.90
2019-03-17T17:52:49.338Z,5.10
2019-03-17T17:55:18.414Z,4.67
2019-03-17T17:57:47.188Z,5.63
2019-03-17T18:00:27.439Z,5.90
2019-03-17T18:02:58.615Z,6.53
2019-03-17T18:05:26.606Z,6.13
2019-03-17T18:07:55.276Z,6.23
2019-03-17T18:10:23.952Z,6.73
2019-03-17T18:12:55.569Z,6.47
2019-03-17T18:15:26.410Z,6.93
2019-03-17T18:17:55.070Z,6.83
2019-03-17T18:20:23.751Z,7.00
2019-03-17T18:22:52.432Z,7.57
2019-03-17T18:25:25.671Z,6.67
2019-03-17T18:27:54.313Z,6.03
2019-03-17T18:30:24.584Z,6.40
2019-03-17T18:32:53.256Z,6.37
2019-03-17T18:35:22.079Z,7.13
2019-03-17T18:37:51.297Z,8.13
2019-03-17T18:40:22.180Z,8.03
2019-03-17T18:42:50.976Z,8.13
2019-03-17T18:45:32.854Z,6.37
2019-03-17T18:48:01.656Z,7.47
2019-03-17T18:50:30.323Z,7.73
2019-03-17T18:52:58.994Z,7.67
2019-03-17T18:55:27.679Z,7.50
2019-03-17T18:57:56.412Z,7.10
2019-03-17T19:00:28.001Z,6.80
2019-03-17T19:02:56.688Z,6.10
2019-03-17T19:05:25.356Z,7.33
2019-03-17T19:07:54.026Z,6.30
2019-03-17T19:10:22.704Z,6.07
2019-03-17T19:12:51.372Z,5.27
2019-03-17T19:15:23.638Z,5.60
2019-03-17T19:17:52.299Z,4.97
2019-03-17T19:20:22.993Z,5.80
2019-03-17T19:22:51.649Z,5.60
2019-03-17T19:25:25.226Z,5.50
2019-03-17T19:27:53.908Z,5.00
2019-03-17T19:30:23.564Z,5.27
2019-03-17T19:32:52.240Z,4.97
2019-03-17T19:35:20.909Z,5.30
2019-03-17T19:37:49.575Z,4.43
2019-03-17T19:40:22.608Z,4.97
2019-03-17T19:42:58.710Z,4.83
2019-03-17T19:45:21.660Z,7.23
2019-03-17T19:47:50.352Z,10.70
2019-03-17T19:50:22.882Z,9.73
2019-03-17T19:52:51.557Z,8.10
2019-03-17T19:55:20.221Z,9.30
2019-03-17T19:57:48.978Z,9.23
2019-03-17T20:00:18.839Z,9.27
2019-03-17T20:02:48.049Z,8.40
2019-03-17T20:05:16.949Z,9.13
2019-03-17T20:07:45.616Z,8.43
2019-03-17T20:10:28.311Z,5.87
2019-03-17T20:12:56.974Z,7.57
2019-03-17T20:15:25.667Z,7.23
2019-03-17T20:17:54.323Z,6.70
2019-03-17T20:20:23.007Z,6.77
2019-03-17T20:22:51.775Z,6.27
2019-03-17T20:25:24.483Z,5.27
2019-03-17T20:27:53.139Z,5.57
2019-03-17T20:30:22.038Z,6.10
2019-03-17T20:32:50.703Z,8.97
2019-03-17T20:35:19.380Z,7.07
2019-03-17T20:37:48.041Z,8.77
2019-03-17T20:40:17.819Z,6.70
2019-03-17T20:42:46.511Z,6.73
2019-03-17T20:45:16.199Z,6.20
2019-03-17T20:47:44.863Z,5.97
2019-03-17T20:50:18.146Z,5.40
2019-03-17T20:52:48.097Z,8.97
2019-03-17T20:55:18.204Z,6.20
2019-03-17T20:57:46.826Z,6.43
2019-03-17T21:00:17.594Z,5.80
2019-03-17T21:02:46.261Z,5.77
2019-03-17T21:05:15.035Z,12.80
2019-03-17T21:07:44.122Z,21.87
2019-03-17T21:10:17.117Z,12.90
2019-03-17T21:12:45.802Z,5.70
2019-03-17T21:15:20.201Z,5.10
2019-03-17T21:17:48.873Z,5.67
2019-03-17T21:20:22.384Z,5.03
2019-03-17T21:22:51.074Z,5.27
2019-03-17T21:25:19.754Z,6.50
2019-03-17T21:27:48.425Z,5.97
2019-03-17T21:30:19.863Z,6.40
2019-03-17T21:32:48.538Z,8.33
2019-03-17T21:35:17.208Z,6.40
2019-03-17T21:37:45.886Z,5.80
2019-03-17T21:40:14.577Z,4.97
2019-03-17T21:42:43.240Z,5.67
2019-03-17T21:45:13.515Z,5.10
2019-03-17T21:47:42.192Z,5.40
2019-03-17T21:50:19.203Z,5.43
2019-03-17T21:52:47.851Z,5.53
2019-03-17T21:55:16.548Z,5.77
2019-03-17T21:57:45.241Z,4.90
2019-03-17T22:00:18.306Z,5.27
2019-03-17T22:02:46.940Z,5.20
2019-03-17T22:05:15.632Z,5.43
2019-03-17T22:07:50.198Z,5.30
2019-03-17T22:10:19.755Z,6.03
2019-03-17T22:12:48.519Z,4.77
2019-03-17T22:15:18.246Z,6.00
2019-03-17T22:17:46.944Z,6.13
2019-03-17T22:20:16.049Z,5.80
2019-03-17T22:22:44.737Z,6.20
2019-03-17T22:25:14.856Z,6.47
2019-03-17T22:27:43.537Z,8.60
2019-03-17T22:30:16.689Z,8.87
2019-03-17T22:32:45.349Z,9.27
2019-03-17T22:35:14.026Z,10.00
2019-03-17T22:37:42.691Z,8.70
2019-03-17T22:40:18.381Z,8.47
2019-03-17T22:42:47.059Z,7.60
2019-03-17T22:45:17.250Z,7.33
2019-03-17T22:47:45.875Z,7.20
2019-03-17T22:50:18.018Z,5.77
2019-03-17T22:52:47.198Z,5.60
2019-03-17T22:55:15.971Z,6.60
2019-03-17T22:57:44.622Z,7.23
2019-03-17T23:00:19.579Z,6.70
2019-03-17T23:02:48.249Z,5.60
2019-03-17T23:05:16.949Z,5.77
2019-03-17T23:07:45.821Z,5.80
2019-03-17T23:10:14.593Z,6.10
2019-03-17T23:12:43.270Z,5.20
2019-03-17T23:15:12.840Z,4.73
2019-03-17T23:17:41.534Z,5.20
2019-03-17T23:20:14.444Z,5.30
2019-03-17T23:22:43.102Z,5.07
2019-03-17T23:25:12.548Z,5.83
2019-03-17T23:27:41.216Z,5.70
2019-03-17T23:30:19.000Z,5.93
2019-03-17T23:32:49.393Z,5.87
2019-03-17T23:35:18.362Z,5.73
2019-03-17T23:37:47.261Z,5.67
2019-03-17T23:40:16.826Z,5.47
2019-03-17T23:42:45.512Z,5.93
2019-03-17T23:45:14.268Z,5.67
2019-03-17T23:47:42.951Z,6.30
2019-03-17T23:50:14.936Z,6.70
2019-03-17T23:52:44.080Z,6.07
2019-03-17T23:55:14.157Z,5.33
2019-03-17T23:57:43.383Z,5.10
